»·PEaware :: SWR8833 EDDF-LOWI

SWR8833 :: EDDF-LOWI

FLIGHT INFORMATION

Flight Status: Arrived
Operator:
Swiss Airlines
More flights by this operator :: More flights under this callsign
Pilot: Cooper L. (8467)
Aircraft: AIRBUS A330-200
(A332)
More flights by this aircraft type
Origin: EDDF Frankfurt/Main
Germany
Destination: LOWI Innsbruck
Austria
More flights between these airports :: More routes between these airports
Route: SOBRA4F RIDSU UL607 BEMKI Z999 XEBIX1B
File this flight plan on PilotEdge
Remarks:
Altitude:
(Current/Filed)
34,000ft
Speed:
(Current/Filed)
450kts
Departed: 22-Dec-15 02:08 PM
Arrived: 22-Dec-15 02:46 PM
Distance/Time
Traveled:
200nm/0:38
Distance/Time
To Go:
Arrived

Flight Plot

Page will automatically refresh every two minutes.


Map Options




Map Legend


Flown Route
Filed Route
Departure Airport
Arrival Airport
Navaid (VOR, NDB)
Fix

Horizontal Profiles

Position Reports

Time Latitude Longitude Heading Altitude Ground
Speed
22-Dec-15 13:55 50.050022 8.591376 160 367ft 0kts
22-Dec-15 13:56 50.050022 8.591376 160 367ft 0kts
22-Dec-15 13:57 50.050022 8.591376 160 367ft 0kts
22-Dec-15 13:58 50.050022 8.591376 160 367ft 0kts
22-Dec-15 13:59 50.050075 8.591347 160 367ft 0kts
22-Dec-15 14:00 50.050348 8.591178 116 367ft 0kts
22-Dec-15 14:01 50.050349 8.591174 114 367ft 0kts
22-Dec-15 14:02 50.049554 8.593425 171 367ft 7kts
22-Dec-15 14:03 50.046945 8.587637 203 367ft 17kts
22-Dec-15 14:04 50.041650 8.572230 245 367ft 134kts
22-Dec-15 14:05 50.002350 8.542027 190 2981ft 203kts
22-Dec-15 14:06 49.933776 8.531932 161 7223ft 268kts
22-Dec-15 14:07 49.810058 8.589948 163 12962ft 378kts
22-Dec-15 14:08 49.650827 8.662060 163 20121ft 417kts
22-Dec-15 14:09 49.489194 8.734735 163 25330ft 451kts
22-Dec-15 14:10 49.370926 8.787526 163 28472ft 471kts
22-Dec-15 14:11 49.248108 8.842138 163 31060ft 463kts
22-Dec-15 14:12 49.131067 8.910528 155 32405ft 481kts
22-Dec-15 14:13 49.011601 8.992209 155 34491ft 475kts
22-Dec-15 14:14 48.895129 9.071657 155 36394ft 480kts
22-Dec-15 14:15 48.746776 9.173233 156 36372ft 476kts
22-Dec-15 14:16 48.623993 9.256065 156 36369ft 477kts
22-Dec-15 14:17 48.500549 9.325177 159 36387ft 477kts
22-Dec-15 14:18 48.379287 9.392779 159 36379ft 476kts
22-Dec-15 14:19 48.259372 9.462639 148 36310ft 476kts
22-Dec-15 14:20 48.159345 9.584991 139 35735ft 475kts
22-Dec-15 14:21 48.050910 9.724460 139 34643ft 480kts
22-Dec-15 14:22 47.947499 9.857488 139 33440ft 482kts
22-Dec-15 14:23 47.847493 9.985438 139 32085ft 485kts
22-Dec-15 14:24 47.732867 10.113751 143 31058ft 484kts
22-Dec-15 14:25 47.630808 10.227314 143 30192ft 464kts
22-Dec-15 14:26 47.528028 10.340288 143 28042ft 456kts
22-Dec-15 14:27 47.424300 10.453606 143 25550ft 438kts
22-Dec-15 14:28 47.324413 10.544404 136 23140ft 423kts
22-Dec-15 14:29 47.297966 10.697753 87 20962ft 406kts
22-Dec-15 14:30 47.307119 10.855123 83 19211ft 410kts
22-Dec-15 14:31 47.318763 11.016442 83 17791ft 387kts
22-Dec-15 14:32 47.312363 11.163640 121 15190ft 350kts
22-Dec-15 14:33 47.251423 11.276522 123 10483ft 342kts
22-Dec-15 14:34 47.233723 11.386898 87 9089ft 255kts
22-Dec-15 14:35 47.249382 11.464995 75 8033ft 186kts
22-Dec-15 14:36 47.257548 11.542376 74 6772ft 193kts
22-Dec-15 14:37 47.289657 11.553196 269 5117ft 193kts
22-Dec-15 14:38 47.273788 11.485524 269 3895ft 171kts
22-Dec-15 14:39 47.270125 11.435773 257 3142ft 164kts
22-Dec-15 14:40 47.264495 11.383695 259 2345ft 132kts
22-Dec-15 14:41 47.262754 11.365890 260 2101ft 126kts
22-Dec-15 14:42 47.259745 11.339728 261 1919ft 16kts
22-Dec-15 14:43 47.257826 11.339664 105 1919ft 20kts
22-Dec-15 14:44 47.258354 11.346753 91 1919ft 8kts
22-Dec-15 14:45 47.257884 11.348824 22 1919ft 0kts
22-Dec-15 14:46 47.261133 11.353267 263 1939ft 120kts
22-Dec-15 14:47 47.266877 11.402443 262 2648ft 150kts

Navigation Log

Ident Type
Flight plan parsing failed, navigation log unavailable